sensor_id;sensor_type;location;lat;lon;timestamp;temperature;humidity
1950;DHT22;975;48.760;9.152;2023-04-03T06:17:08;8.00;99.90
1950;DHT22;975;48.760;9.152;2023-04-03T06:19:56;6.00;95.80
1950;DHT22;975;48.760;9.152;2023-04-03T06:22:46;6.00;95.60
1950;DHT22;975;48.760;9.152;2023-04-03T06:25:33;6.10;95.50
1950;DHT22;975;48.760;9.152;2023-04-03T06:28:21;6.20;94.90
1950;DHT22;975;48.760;9.152;2023-04-03T06:31:11;6.10;95.40
1950;DHT22;975;48.760;9.152;2023-04-03T06:33:59;6.10;95.30
1950;DHT22;975;48.760;9.152;2023-04-03T06:36:47;6.20;95.30
1950;DHT22;975;48.760;9.152;2023-04-03T06:39:41;6.10;95.20
1950;DHT22;975;48.760;9.152;2023-04-03T06:42:28;6.10;95.40
1950;DHT22;975;48.760;9.152;2023-04-03T06:45:16;6.10;95.80
1950;DHT22;975;48.760;9.152;2023-04-03T06:48:04;5.80;95.70
1950;DHT22;975;48.760;9.152;2023-04-03T06:50:55;5.70;95.90
1950;DHT22;975;48.760;9.152;2023-04-03T06:53:43;5.60;96.00
1950;DHT22;975;48.760;9.152;2023-04-03T06:56:38;5.50;96.40
1950;DHT22;975;48.760;9.152;2023-04-03T06:59:26;5.40;96.60
1950;DHT22;975;48.760;9.152;2023-04-03T07:02:13;5.60;96.70
1950;DHT22;975;48.760;9.152;2023-04-03T07:05:01;5.70;96.50
1950;DHT22;975;48.760;9.152;2023-04-03T07:07:48;5.80;96.50
1950;DHT22;975;48.760;9.152;2023-04-03T07:10:40;5.90;96.10
1950;DHT22;975;48.760;9.152;2023-04-03T07:13:32;5.90;96.30
1950;DHT22;975;48.760;9.152;2023-04-03T07:16:20;6.00;96.00
1950;DHT22;975;48.760;9.152;2023-04-03T07:19:08;5.90;96.10
1950;DHT22;975;48.760;9.152;2023-04-03T07:21:56;6.00;96.30
1950;DHT22;975;48.760;9.152;2023-04-03T07:24:46;6.10;96.10
1950;DHT22;975;48.760;9.152;2023-04-03T07:27:34;6.10;96.50
1950;DHT22;975;48.760;9.152;2023-04-03T07:30:32;6.20;96.20
1950;DHT22;975;48.760;9.152;2023-04-03T07:33:22;6.10;96.10
1950;DHT22;975;48.760;9.152;2023-04-03T07:36:11;6.30;96.40
1950;DHT22;975;48.760;9.152;2023-04-03T07:39:04;6.50;96.20
1950;DHT22;975;48.760;9.152;2023-04-03T07:41:53;6.70;95.20
1950;DHT22;975;48.760;9.152;2023-04-03T07:44:41;6.80;95.30
1950;DHT22;975;48.760;9.152;2023-04-03T07:47:34;6.80;95.60
1950;DHT22;975;48.760;9.152;2023-04-03T07:50:24;6.80;95.60
1950;DHT22;975;48.760;9.152;2023-04-03T07:53:18;6.90;95.50
1950;DHT22;975;48.760;9.152;2023-04-03T07:56:08;7.00;95.60
1950;DHT22;975;48.760;9.152;2023-04-03T07:58:56;7.10;95.40
1950;DHT22;975;48.760;9.152;2023-04-03T08:01:45;7.20;95.10
1950;DHT22;975;48.760;9.152;2023-04-03T08:04:39;7.30;94.90
1950;DHT22;975;48.760;9.152;2023-04-03T08:07:29;7.20;94.90
1950;DHT22;975;48.760;9.152;2023-04-03T08:10:25;7.20;95.00
1950;DHT22;975;48.760;9.152;2023-04-03T08:13:25;7.20;94.70
1950;DHT22;975;48.760;9.152;2023-04-03T08:16:20;7.20;94.80
1950;DHT22;975;48.760;9.152;2023-04-03T08:19:08;7.10;95.40
1950;DHT22;975;48.760;9.152;2023-04-03T08:21:58;7.10;95.20
1950;DHT22;975;48.760;9.152;2023-04-03T08:24:49;7.30;95.00
1950;DHT22;975;48.760;9.152;2023-04-03T08:27:45;7.30;94.70
1950;DHT22;975;48.760;9.152;2023-04-03T08:30:34;7.30;95.30
1950;DHT22;975;48.760;9.152;2023-04-03T08:33:26;7.40;95.40
1950;DHT22;975;48.760;9.152;2023-04-03T08:36:25;7.50;95.10
1950;DHT22;975;48.760;9.152;2023-04-03T08:39:15;7.70;94.60
1950;DHT22;975;48.760;9.152;2023-04-03T08:42:11;7.80;94.50
1950;DHT22;975;48.760;9.152;2023-04-03T08:45:04;7.90;94.30
1950;DHT22;975;48.760;9.152;2023-04-03T08:48:05;7.90;94.00
1950;DHT22;975;48.760;9.152;2023-04-03T08:50:57;7.80;94.50
1950;DHT22;975;48.760;9.152;2023-04-03T08:53:53;8.00;94.60
1950;DHT22;975;48.760;9.152;2023-04-03T08:56:42;8.10;94.20
1950;DHT22;975;48.760;9.152;2023-04-03T08:59:33;8.00;94.00
1950;DHT22;975;48.760;9.152;2023-04-03T09:02:27;8.00;94.20
1950;DHT22;975;48.760;9.152;2023-04-03T09:05:19;8.10;94.30
1950;DHT22;975;48.760;9.152;2023-04-03T09:08:14;8.20;93.60
1950;DHT22;975;48.760;9.152;2023-04-03T09:39:50;8.20;93.70
1950;DHT22;975;48.760;9.152;2023-04-03T09:42:41;8.40;92.90
1950;DHT22;975;48.760;9.152;2023-04-03T09:45:31;8.50;92.80
1950;DHT22;975;48.760;9.152;2023-04-03T09:48:22;8.40;92.90
1950;DHT22;975;48.760;9.152;2023-04-03T09:51:15;8.20;92.30
1950;DHT22;975;48.760;9.152;2023-04-03T09:54:25;8.10;93.00
1950;DHT22;975;48.760;9.152;2023-04-03T09:57:13;8.20;92.40
1950;DHT22;975;48.760;9.152;2023-04-03T10:08:31;8.10;91.90
1950;DHT22;975;48.760;9.152;2023-04-03T10:11:19;7.80;93.10
1950;DHT22;975;48.760;9.152;2023-04-03T10:14:16;7.80;92.90
1950;DHT22;975;48.760;9.152;2023-04-03T10:34:25;7.80;92.40
1950;DHT22;975;48.760;9.152;2023-04-03T10:37:22;7.70;92.30
1950;DHT22;975;48.760;9.152;2023-04-03T10:40:22;7.90;91.90
1950;DHT22;975;48.760;9.152;2023-04-03T10:43:18;7.90;91.50
1950;DHT22;975;48.760;9.152;2023-04-03T10:46:11;7.80;91.80
1950;DHT22;975;48.760;9.152;2023-04-03T10:49:14;7.80;91.90
1950;DHT22;975;48.760;9.152;2023-04-03T11:00:47;8.00;91.90
1950;DHT22;975;48.760;9.152;2023-04-03T11:03:38;8.00;91.70
1950;DHT22;975;48.760;9.152;2023-04-03T11:06:34;8.10;90.80
1950;DHT22;975;48.760;9.152;2023-04-03T11:09:26;8.20;90.90
1950;DHT22;975;48.760;9.152;2023-04-03T11:12:18;8.30;91.20
1950;DHT22;975;48.760;9.152;2023-04-03T11:15:13;8.30;90.30
1950;DHT22;975;48.760;9.152;2023-04-03T11:18:06;8.20;91.00
1950;DHT22;975;48.760;9.152;2023-04-03T11:21:02;8.30;90.30
1950;DHT22;975;48.760;9.152;2023-04-03T11:23:51;8.30;89.90
1950;DHT22;975;48.760;9.152;2023-04-03T11:26:41;8.50;88.20
1950;DHT22;975;48.760;9.152;2023-04-03T11:29:32;8.60;88.40
1950;DHT22;975;48.760;9.152;2023-04-03T11:32:53;8.60;87.50
1950;DHT22;975;48.760;9.152;2023-04-03T11:36:56;8.50;86.10
1950;DHT22;975;48.760;9.152;2023-04-03T11:40:50;8.40;87.50
1950;DHT22;975;48.760;9.152;2023-04-03T11:43:59;8.20;87.00
1950;DHT22;975;48.760;9.152;2023-04-03T11:46:56;8.20;88.40
1950;DHT22;975;48.760;9.152;2023-04-03T11:49:53;8.00;87.50
1950;DHT22;975;48.760;9.152;2023-04-03T11:53:00;7.90;88.50
1950;DHT22;975;48.760;9.152;2023-04-03T11:55:59;7.90;88.90
1950;DHT22;975;48.760;9.152;2023-04-03T12:01:51;8.00;88.60
1950;DHT22;975;48.760;9.152;2023-04-03T12:08:28;7.90;87.50
1950;DHT22;975;48.760;9.152;2023-04-03T12:11:24;7.80;87.10
1950;DHT22;975;48.760;9.152;2023-04-03T12:14:15;7.80;86.90
1950;DHT22;975;48.760;9.152;2023-04-03T12:17:12;8.00;87.60
1950;DHT22;975;48.760;9.152;2023-04-03T12:23:35;8.40;86.60
1950;DHT22;975;48.760;9.152;2023-04-03T12:26:26;8.40;86.20
1950;DHT22;975;48.760;9.152;2023-04-03T12:29:17;8.40;85.90
1950;DHT22;975;48.760;9.152;2023-04-03T12:32:18;8.40;86.60
1950;DHT22;975;48.760;9.152;2023-04-03T19:09:37;8.50;86.00
1950;DHT22;975;48.760;9.152;2023-04-03T21:40:13;6.70;76.10
1950;DHT22;975;48.760;9.152;2023-04-03T21:43:01;4.10;86.10
1950;DHT22;975;48.760;9.152;2023-04-03T21:45:52;4.00;86.10
1950;DHT22;975;48.760;9.152;2023-04-03T21:48:40;4.00;86.10
1950;DHT22;975;48.760;9.152;2023-04-03T21:51:28;4.00;86.30
1950;DHT22;975;48.760;9.152;2023-04-03T21:54:18;4.00;86.60
1950;DHT22;975;48.760;9.152;2023-04-03T21:57:06;4.00;86.20
1950;DHT22;975;48.760;9.152;2023-04-03T21:59:56;4.00;86.20
1950;DHT22;975;48.760;9.152;2023-04-03T22:02:44;4.00;86.50
1950;DHT22;975;48.760;9.152;2023-04-03T22:05:35;3.90;86.30
1950;DHT22;975;48.760;9.152;2023-04-03T22:08:23;3.90;86.30
1950;DHT22;975;48.760;9.152;2023-04-03T22:11:14;3.90;86.40
1950;DHT22;975;48.760;9.152;2023-04-03T22:14:08;3.90;86.00
1950;DHT22;975;48.760;9.152;2023-04-03T22:16:55;4.00;85.90
1950;DHT22;975;48.760;9.152;2023-04-03T22:19:47;3.90;86.30
1950;DHT22;975;48.760;9.152;2023-04-03T22:22:37;3.90;86.50
1950;DHT22;975;48.760;9.152;2023-04-03T22:25:25;3.80;86.70
1950;DHT22;975;48.760;9.152;2023-04-03T22:28:20;3.80;86.50
